Time;durP1;ratioP1;P1;durP2;ratioP2;P2;SDS_P1;SDS_P2;PMS_P1;PMS_P2;Temp;Humidity;BMP_temperature;BMP_pressure;BME280_temperature;BME280_humidity;BME280_pressure;Samples;Min_cycle;Max_cycle;Signal;HPM_P1;HPM_P2
2023/01/19 00:00:35;;;;;;;26.73;20.67;;;;;;;0.58;100.00;100010.66;5090128;28;20052;-45
2023/01/19 00:03:03;;;;;;;28.50;20.80;;;;;;;0.56;100.00;100010.09;5090231;28;20079;-46
2023/01/19 00:05:28;;;;;;;30.00;20.85;;;;;;;0.59;100.00;100015.00;5090579;28;20047;-47
2023/01/19 00:07:53;;;;;;;29.55;21.05;;;;;;;0.59;100.00;100013.13;5090584;28;20028;-50
2023/01/19 00:10:18;;;;;;;27.77;21.60;;;;;;;0.63;100.00;100010.72;5090117;28;20479;-46
2023/01/19 00:12:44;;;;;;;30.98;21.98;;;;;;;0.59;100.00;100004.97;5090641;28;20119;-47
2023/01/19 00:15:10;;;;;;;28.92;20.58;;;;;;;0.55;100.00;100000.31;5090532;28;20056;-50
2023/01/19 00:17:35;;;;;;;28.40;21.77;;;;;;;0.46;100.00;100008.09;5088814;28;20039;-46
2023/01/19 00:20:00;;;;;;;29.13;21.52;;;;;;;0.46;100.00;100002.66;5090492;28;20024;-45
2023/01/19 00:22:26;;;;;;;31.20;23.92;;;;;;;0.34;100.00;100000.13;5090538;28;20032;-45
2023/01/19 00:24:51;;;;;;;26.38;20.73;;;;;;;0.41;100.00;100010.81;5090588;28;20028;-48
2023/01/19 00:27:16;;;;;;;28.80;21.40;;;;;;;0.47;100.00;100016.00;5090154;28;20016;-45
2023/01/19 00:29:42;;;;;;;31.50;21.60;;;;;;;0.43;100.00;100024.94;5088734;28;20601;-47
2023/01/19 00:32:07;;;;;;;28.30;21.52;;;;;;;0.41;100.00;100016.25;5092697;28;20103;-47
2023/01/19 00:34:48;;;;;;;28.10;21.67;;;;;;;0.47;100.00;100026.88;5094152;28;20024;-46
2023/01/19 00:37:15;;;;;;;31.02;23.00;;;;;;;0.38;100.00;100023.00;5094211;28;20024;-47
2023/01/19 00:39:41;;;;;;;27.67;21.35;;;;;;;0.41;100.00;100022.50;5094292;28;20032;-48
2023/01/19 00:44:54;;;;;;;29.35;21.52;;;;;;;0.41;100.00;100029.84;5086344;28;20043;-49
2023/01/19 00:47:19;;;;;;;29.27;22.33;;;;;;;0.40;100.00;100022.75;5093349;28;20406;-47
2023/01/19 00:49:44;;;;;;;27.48;20.95;;;;;;;0.42;100.00;100015.97;5093721;28;20076;-49
2023/01/19 00:52:10;;;;;;;29.10;21.58;;;;;;;0.41;100.00;100011.59;5093624;28;20505;-48
2023/01/19 00:54:35;;;;;;;28.77;21.05;;;;;;;0.33;100.00;100006.66;5091878;28;20048;-47
2023/01/19 00:57:02;;;;;;;28.23;22.33;;;;;;;0.24;100.00;100002.75;5093845;28;20383;-47
2023/01/19 00:59:27;;;;;;;29.33;21.88;;;;;;;0.21;100.00;100003.25;5093189;28;20084;-47
2023/01/19 01:01:52;;;;;;;29.17;22.65;;;;;;;0.13;100.00;99999.94;5091768;28;20385;-46
2023/01/19 01:04:18;;;;;;;30.73;23.75;;;;;;;0.15;100.00;100010.53;5093463;28;20471;-46
2023/01/19 01:06:43;;;;;;;30.25;21.15;;;;;;;0.13;100.00;100007.28;5093700;28;20435;-45
2023/01/19 01:09:11;;;;;;;33.15;23.67;;;;;;;0.14;100.00;100008.94;5093262;28;20043;-48
2023/01/19 01:11:41;;;;;;;29.27;21.77;;;;;;;0.11;100.00;100004.81;5093507;28;20087;-47
2023/01/19 01:14:08;;;;;;;28.95;21.70;;;;;;;0.13;100.00;100008.09;5093473;28;20028;-48
2023/01/19 01:16:34;;;;;;;29.80;21.40;;;;;;;0.18;100.00;100011.94;5093226;28;20081;-46
2023/01/19 01:18:59;;;;;;;29.98;22.33;;;;;;;0.15;100.00;100011.38;5093160;28;20024;-45
2023/01/19 01:21:24;;;;;;;30.38;21.90;;;;;;;0.18;100.00;100026.38;5093539;28;20452;-45
2023/01/19 01:23:50;;;;;;;29.58;21.95;;;;;;;0.24;100.00;100030.75;5093491;28;20376;-48
2023/01/19 01:26:15;;;;;;;29.42;21.30;;;;;;;0.31;100.00;100036.00;5093459;28;20035;-48
2023/01/19 01:28:40;;;;;;;29.40;21.20;;;;;;;0.25;100.00;100029.69;5092539;28;20024;-51
2023/01/19 01:31:06;;;;;;;31.95;21.55;;;;;;;0.37;100.00;100034.16;5092544;28;20031;-44
2023/01/19 01:33:31;;;;;;;28.33;20.45;;;;;;;0.39;100.00;100023.84;5092294;28;20031;-51
2023/01/19 01:35:56;;;;;;;27.60;19.65;;;;;;;0.46;100.00;100029.88;5092671;28;20383;-51
2023/01/19 01:38:22;;;;;;;28.13;21.23;;;;;;;0.47;100.00;100020.63;5093111;28;20047;-50
2023/01/19 01:40:47;;;;;;;28.98;20.17;;;;;;;0.46;100.00;100017.13;5085255;28;20431;-47
2023/01/19 01:43:15;;;;;;;29.70;21.85;;;;;;;0.49;100.00;100025.81;5092728;28;20039;-48
2023/01/19 01:45:41;;;;;;;28.08;21.58;;;;;;;0.47;100.00;100021.44;5092945;28;20487;-48
2023/01/19 01:48:21;;;;;;;28.48;21.55;;;;;;;0.48;100.00;100008.69;5092145;28;20024;-47
2023/01/19 01:53:38;;;;;;;28.15;20.25;;;;;;;0.47;100.00;100026.09;5092820;28;20035;-49
2023/01/19 01:56:11;;;;;;;23.70;18.80;;;;;;;0.53;100.00;100008.72;5092942;28;20103;-48
2023/01/19 01:58:37;;;;;;;27.98;19.13;;;;;;;0.41;100.00;100027.13;5092516;28;20027;-48
2023/01/19 02:03:49;;;;;;;27.38;19.65;;;;;;;0.38;100.00;100020.28;5092270;28;20039;-50
2023/01/19 02:06:14;;;;;;;26.38;19.05;;;;;;;0.38;100.00;100014.03;5091982;28;20107;-46
2023/01/19 02:14:15;;;;;;;28.73;19.80;;;;;;;0.42;100.00;100035.03;5092163;28;20043;-47
2023/01/19 02:16:41;;;;;;;27.75;20.20;;;;;;;0.40;100.00;100033.66;5092413;28;20024;-48
2023/01/19 02:19:10;;;;;;;26.10;19.52;;;;;;;0.46;100.00;100040.75;5091978;28;20063;-50
2023/01/19 02:22:03;;;;;;;27.48;19.95;;;;;;;0.34;100.00;100038.22;5092089;28;20036;-51
2023/01/19 02:24:29;;;;;;;25.58;19.23;;;;;;;0.23;100.00;100031.03;5091895;28;20027;-47
2023/01/19 02:26:55;;;;;;;25.67;18.95;;;;;;;0.21;100.00;100028.56;5092068;28;20098;-46
2023/01/19 02:29:24;;;;;;;25.73;19.08;;;;;;;0.19;100.00;100032.63;5091421;28;20028;-48
2023/01/19 02:31:50;;;;;;;26.45;18.95;;;;;;;0.22;100.00;100030.22;5091045;28;20115;-48
2023/01/19 02:34:18;;;;;;;24.05;18.58;;;;;;;0.18;100.00;100031.00;5091151;28;20142;-51
2023/01/19 02:36:55;;;;;;;25.30;18.23;;;;;;;0.23;100.00;100042.75;5084018;28;20119;-49
2023/01/19 02:39:35;;;;;;;25.58;19.15;;;;;;;0.15;100.00;100049.47;5091617;28;20034;-46
2023/01/19 02:42:08;;;;;;;24.75;19.10;;;;;;;0.17;100.00;100048.38;5091659;28;20111;-47
2023/01/19 02:44:35;;;;;;;24.23;17.98;;;;;;;0.08;100.00;100048.00;5092442;28;20032;-47
2023/01/19 02:47:01;;;;;;;24.45;19.55;;;;;;;0.01;100.00;100048.22;5091390;28;20020;-48
2023/01/19 02:49:29;;;;;;;28.23;20.10;;;;;;;-0.03;100.00;100058.78;5091256;28;20074;-49
2023/01/19 02:51:54;;;;;;;26.42;20.80;;;;;;;-0.05;100.00;100051.97;5092187;28;20063;-51
2023/01/19 02:54:44;;;;;;;27.33;20.17;;;;;;;0.02;100.00;100057.19;5090770;28;20056;-47
2023/01/19 02:57:39;;;;;;;26.08;19.70;;;;;;;-0.05;100.00;100054.69;5091764;28;20518;-49
2023/01/19 03:00:21;;;;;;;29.38;21.00;;;;;;;-0.02;100.00;100059.63;5083850;28;20039;-51
2023/01/19 03:03:15;;;;;;;26.15;19.98;;;;;;;-0.03;100.00;100060.69;5090786;28;20035;-49
2023/01/19 03:06:00;;;;;;;25.83;20.65;;;;;;;-0.07;100.00;100059.53;5090883;28;20643;-49
2023/01/19 03:09:13;;;;;;;27.55;20.73;;;;;;;-0.03;100.00;100066.13;5091333;28;20055;-49
2023/01/19 03:11:45;;;;;;;25.58;20.70;;;;;;;-0.18;100.00;100056.69;5044797;28;20044;-51
2023/01/19 03:14:17;;;;;;;25.10;19.33;;;;;;;-0.14;100.00;100067.88;5090834;28;20036;-50
2023/01/19 03:16:47;;;;;;;25.55;19.23;;;;;;;-0.10;100.00;100077.19;5091423;28;20024;-48
2023/01/19 03:19:21;;;;;;;26.67;20.50;;;;;;;-0.06;100.00;100074.78;5091040;28;20028;-48
2023/01/19 03:21:56;;;;;;;24.35;18.88;;;;;;;-0.02;100.00;100082.19;5090805;28;20032;-48
2023/01/19 03:24:25;;;;;;;24.63;19.67;;;;;;;0.02;100.00;100081.69;5091172;28;20036;-47
2023/01/19 03:26:56;;;;;;;22.85;17.92;;;;;;;0.03;100.00;100089.56;5090661;28;20028;-49
2023/01/19 03:29:25;;;;;;;24.88;19.15;;;;;;;-0.12;100.00;100086.69;5090936;28;20498;-49
2023/01/19 03:31:52;;;;;;;29.00;19.98;;;;;;;-0.13;100.00;100091.28;5090307;28;20027;-49
2023/01/19 03:34:22;;;;;;;23.95;19.77;;;;;;;-0.05;100.00;100093.56;5082849;28;20447;-46
2023/01/19 03:36:51;;;;;;;24.95;19.02;;;;;;;-0.18;100.00;100096.66;5090032;28;20046;-50
2023/01/19 03:39:21;;;;;;;24.92;19.98;;;;;;;-0.14;100.00;100110.59;5090762;28;20103;-50
2023/01/19 03:41:48;;;;;;;25.63;19.80;;;;;;;-0.24;100.00;100116.72;5091001;28;20026;-45
2023/01/19 03:44:15;;;;;;;23.48;18.15;;;;;;;-0.19;100.00;100116.78;5090848;28;20040;-47
2023/01/19 03:46:41;;;;;;;24.70;19.58;;;;;;;-0.23;100.00;100126.50;5090427;28;20552;-49
2023/01/19 03:49:07;;;;;;;24.42;19.33;;;;;;;-0.25;100.00;100136.81;5090301;28;20059;-48
2023/01/19 03:51:36;;;;;;;22.50;17.70;;;;;;;-0.21;100.00;100137.94;5090571;28;20024;-46
2023/01/19 03:54:01;;;;;;;23.85;19.08;;;;;;;-0.28;100.00;100142.75;5090390;28;20471;-49
2023/01/19 03:56:27;;;;;;;24.60;18.85;;;;;;;-0.31;100.00;100127.78;5090609;28;20024;-48
2023/01/19 03:58:52;;;;;;;22.15;17.80;;;;;;;-0.21;100.00;100130.63;5090380;28;20107;-47
2023/01/19 04:01:21;;;;;;;25.23;19.27;;;;;;;-0.28;100.00;100137.31;5088524;28;20265;-46
2023/01/19 04:03:50;;;;;;;25.35;19.13;;;;;;;-0.25;100.00;100145.78;5089735;28;20051;-47
2023/01/19 04:06:16;;;;;;;24.38;19.33;;;;;;;-0.27;100.00;100145.22;5091282;28;20028;-50
2023/01/19 04:08:41;;;;;;;23.50;19.02;;;;;;;-0.27;100.00;100152.56;5094494;28;20024;-51
2023/01/19 04:11:07;;;;;;;24.83;19.40;;;;;;;-0.32;100.00;100156.03;5092216;28;20024;-49
2023/01/19 04:13:33;;;;;;;23.67;18.70;;;;;;;-0.33;100.00;100154.38;5094211;28;20048;-51
2023/01/19 04:16:00;;;;;;;25.60;18.95;;;;;;;-0.21;100.00;100146.94;5094116;28;20047;-46
2023/01/19 04:18:27;;;;;;;23.58;18.38;;;;;;;-0.36;100.00;100147.56;5093354;28;20141;-47
2023/01/19 04:20:53;;;;;;;23.23;18.30;;;;;;;-0.34;100.00;100147.28;5093504;28;20116;-47
2023/01/19 04:23:18;;;;;;;22.73;18.08;;;;;;;-0.27;100.00;100147.13;5093252;28;20054;-50
2023/01/19 04:25:43;;;;;;;20.80;16.67;;;;;;;-0.34;100.00;100150.00;5093815;28;20024;-49
2023/01/19 04:28:08;;;;;;;22.00;16.52;;;;;;;-0.30;100.00;100153.88;5086406;28;20016;-48
2023/01/19 04:30:34;;;;;;;19.73;15.02;;;;;;;-0.27;100.00;100155.28;5093211;28;20043;-50
2023/01/19 04:32:59;;;;;;;20.02;15.57;;;;;;;-0.36;100.00;100163.88;5093455;28;20278;-50
2023/01/19 04:35:25;;;;;;;19.92;15.45;;;;;;;-0.26;100.00;100163.16;5093372;28;20429;-48
2023/01/19 04:37:50;;;;;;;19.75;15.10;;;;;;;-0.34;100.00;100167.16;5092353;28;20115;-49
2023/01/19 04:40:15;;;;;;;19.42;15.40;;;;;;;-0.32;100.00;100169.63;5093558;28;20031;-46
2023/01/19 04:42:45;;;;;;;19.48;15.10;;;;;;;-0.34;100.00;100175.31;5092685;28;20030;-49
2023/01/19 04:45:13;;;;;;;19.10;14.52;;;;;;;-0.39;100.00;100167.06;5094205;28;20028;-51
2023/01/19 04:47:39;;;;;;;18.88;14.45;;;;;;;-0.36;100.00;100154.88;5091591;28;20032;-45
2023/01/19 04:50:05;;;;;;;18.23;14.25;;;;;;;-0.28;100.00;100156.34;5092402;28;20034;-48
2023/01/19 04:52:33;;;;;;;18.75;14.65;;;;;;;-0.36;100.00;100135.84;5093192;28;20024;-49
2023/01/19 04:55:00;;;;;;;17.70;13.55;;;;;;;-0.33;100.00;100117.13;5092100;28;20044;-48
2023/01/19 04:57:25;;;;;;;17.13;13.25;;;;;;;-0.34;100.00;100107.38;5092883;28;20481;-48
2023/01/19 04:59:50;;;;;;;17.80;13.77;;;;;;;-0.40;100.00;100094.75;5093659;28;20024;-49
2023/01/19 05:02:16;;;;;;;17.85;13.80;;;;;;;-0.39;100.00;100093.69;5091966;28;20031;-49
2023/01/19 05:04:41;;;;;;;17.90;13.70;;;;;;;-0.38;100.00;100094.53;5093203;28;20501;-49
2023/01/19 05:07:07;;;;;;;17.40;13.18;;;;;;;-0.36;100.00;100100.50;5093375;28;20032;-47
2023/01/19 05:09:32;;;;;;;17.30;13.13;;;;;;;-0.33;100.00;100108.16;5093406;28;20067;-46
2023/01/19 05:11:57;;;;;;;17.42;13.07;;;;;;;-0.26;100.00;100110.72;5093041;28;20020;-47
2023/01/19 05:14:22;;;;;;;17.27;13.02;;;;;;;-0.28;100.00;100118.28;5093457;28;20386;-50
2023/01/19 05:16:48;;;;;;;18.33;13.48;;;;;;;-0.27;100.00;100128.09;5092737;28;20024;-47
2023/01/19 05:19:14;;;;;;;17.95;13.70;;;;;;;-0.28;100.00;100129.16;5093268;28;20614;-50
2023/01/19 05:21:39;;;;;;;18.67;13.82;;;;;;;-0.25;100.00;100132.19;5093652;28;20032;-50
2023/01/19 05:24:05;;;;;;;18.35;13.70;;;;;;;-0.33;100.00;100121.75;5093362;28;20088;-47
2023/01/19 05:26:30;;;;;;;19.52;14.18;;;;;;;-0.35;100.00;100121.19;5086284;28;20020;-48
2023/01/19 05:28:56;;;;;;;18.92;13.90;;;;;;;-0.39;100.00;100117.34;5092852;28;20035;-48
2023/01/19 05:31:22;;;;;;;18.58;14.43;;;;;;;-0.48;100.00;100131.38;5091910;28;20107;-46
2023/01/19 05:33:47;;;;;;;19.77;15.10;;;;;;;-0.48;100.00;100133.25;5091810;28;20428;-52
2023/01/19 05:36:13;;;;;;;20.10;15.18;;;;;;;-0.47;100.00;100146.56;5091348;28;20490;-49
2023/01/19 05:38:38;;;;;;;20.08;14.48;;;;;;;-0.44;100.00;100150.69;5091221;28;20032;-49
2023/01/19 05:41:04;;;;;;;19.40;14.73;;;;;;;-0.47;100.00;100157.44;5091919;28;20028;-51
2023/01/19 05:43:29;;;;;;;19.77;14.77;;;;;;;-0.54;100.00;100143.22;5091860;28;20040;-47
2023/01/19 05:45:54;;;;;;;18.92;14.93;;;;;;;-0.43;100.00;100152.34;5091714;28;20157;-50
2023/01/19 05:48:19;;;;;;;18.98;14.80;;;;;;;-0.42;100.00;100155.88;5091770;28;20024;-50
2023/01/19 05:50:48;;;;;;;18.67;14.50;;;;;;;-0.42;100.00;100156.69;5091250;28;20032;-50
2023/01/19 05:53:13;;;;;;;20.25;15.02;;;;;;;-0.49;100.00;100148.72;5089352;28;20480;-49
2023/01/19 05:55:38;;;;;;;21.13;15.18;;;;;;;-0.43;100.00;100157.78;5090871;28;20044;-49
2023/01/19 05:58:04;;;;;;;20.25;15.10;;;;;;;-0.39;100.00;100153.47;5090941;28;20103;-49
2023/01/19 06:00:29;;;;;;;20.08;15.82;;;;;;;-0.36;100.00;100163.88;5090900;28;20036;-48
2023/01/19 06:02:54;;;;;;;25.02;16.42;;;;;;;-0.34;100.00;100169.88;5091353;28;20069;-50
2023/01/19 06:05:20;;;;;;;21.10;16.10;;;;;;;-0.31;100.00;100163.09;5090940;28;20118;-48
2023/01/19 06:07:45;;;;;;;20.27;15.90;;;;;;;-0.27;100.00;100172.41;5091236;28;20024;-47
2023/01/19 06:10:10;;;;;;;22.83;17.00;;;;;;;-0.22;100.00;100168.91;5090248;28;20048;-48
2023/01/19 06:12:39;;;;;;;21.73;16.58;;;;;;;-0.27;100.00;100166.94;5090542;28;20448;-47
2023/01/19 06:15:05;;;;;;;23.33;17.27;;;;;;;-0.24;100.00;100176.53;5090339;28;20414;-49
2023/01/19 06:17:31;;;;;;;27.52;19.77;;;;;;;-0.31;100.00;100171.25;5090926;28;20067;-46
2023/01/19 06:19:57;;;;;;;24.70;18.33;;;;;;;-0.29;100.00;100173.72;5086905;28;20191;-51
2023/01/19 06:22:22;;;;;;;27.45;19.75;;;;;;;-0.25;100.00;100175.69;5087232;28;20020;-47
2023/01/19 06:24:47;;;;;;;24.15;18.35;;;;;;;-0.19;100.00;100187.47;5088792;28;20029;-48
2023/01/19 06:27:13;;;;;;;27.55;19.63;;;;;;;-0.19;100.00;100190.19;5090567;28;20039;-51
2023/01/19 06:29:38;;;;;;;26.05;18.40;;;;;;;-0.21;100.00;100195.88;5089854;28;20479;-48
2023/01/19 06:32:04;;;;;;;25.35;17.25;;;;;;;-0.20;100.00;100196.69;5090698;28;20147;-50
2023/01/19 06:34:29;;;;;;;23.75;17.25;;;;;;;-0.20;100.00;100202.13;5090459;28;20032;-50
2023/01/19 06:36:55;;;;;;;25.50;18.70;;;;;;;-0.23;100.00;100203.44;5090327;28;20349;-50
2023/01/19 06:39:20;;;;;;;25.00;18.17;;;;;;;-0.23;100.00;100203.44;5090288;28;20032;-48
2023/01/19 06:41:46;;;;;;;26.08;20.10;;;;;;;-0.22;100.00;100207.81;5090233;28;20032;-50
2023/01/19 06:44:11;;;;;;;26.88;18.83;;;;;;;-0.22;100.00;100215.97;5089479;28;20103;-47
2023/01/19 06:46:36;;;;;;;26.00;19.60;;;;;;;-0.25;100.00;100216.47;5090510;28;20476;-49
2023/01/19 06:49:02;;;;;;;26.02;20.70;;;;;;;-0.16;100.00;100214.97;5091427;28;20016;-50
2023/01/19 06:51:27;;;;;;;26.65;21.55;;;;;;;-0.11;100.00;100225.09;5090872;28;20031;-47
2023/01/19 06:53:53;;;;;;;26.50;20.85;;;;;;;-0.12;100.00;100218.00;5090389;28;20115;-51
2023/01/19 06:56:18;;;;;;;26.90;20.50;;;;;;;-0.09;100.00;100230.28;5091020;28;20417;-50
2023/01/19 06:58:46;;;;;;;29.10;21.50;;;;;;;-0.03;100.00;100237.44;5088912;28;20024;-48
2023/01/19 07:01:11;;;;;;;30.23;21.80;;;;;;;-0.03;100.00;100235.53;5089306;28;20036;-49
2023/01/19 07:03:37;;;;;;;27.70;21.42;;;;;;;0.00;100.00;100245.13;5085447;28;20025;-51
2023/01/19 07:06:05;;;;;;;28.40;22.95;;;;;;;0.04;100.00;100238.09;5066763;28;20034;-48
2023/01/19 07:08:31;;;;;;;27.60;22.80;;;;;;;0.06;100.00;100240.53;5064483;28;20724;-52
2023/01/19 07:11:05;;;;;;;29.05;22.40;;;;;;;0.10;100.00;100258.03;5074761;28;20039;-47
2023/01/19 07:13:32;;;;;;;29.98;24.20;;;;;;;0.05;100.00;100253.34;5075867;28;20024;-47
2023/01/19 07:15:57;;;;;;;27.92;22.73;;;;;;;0.08;100.00;100262.88;5075963;28;20094;-49
2023/01/19 07:18:23;;;;;;;31.52;25.80;;;;;;;0.12;100.00;100264.03;5076135;28;20028;-50
2023/01/19 07:20:48;;;;;;;29.75;24.10;;;;;;;0.14;100.00;100253.75;5079279;28;20399;-49
2023/01/19 07:23:14;;;;;;;31.70;24.40;;;;;;;0.17;100.00;100264.09;5087800;28;20039;-49
2023/01/19 07:25:40;;;;;;;30.58;23.35;;;;;;;0.21;100.00;100261.69;5087847;28;20023;-48
2023/01/19 07:28:05;;;;;;;32.60;25.23;;;;;;;0.19;100.00;100272.03;5087690;28;20043;-47
2023/01/19 07:30:30;;;;;;;32.47;26.35;;;;;;;0.17;100.00;100268.72;5087736;28;20032;-54
2023/01/19 07:32:56;;;;;;;32.63;24.35;;;;;;;0.18;100.00;100278.53;5087884;28;20028;-48
2023/01/19 07:35:23;;;;;;;30.30;23.48;;;;;;;0.15;100.00;100277.13;5085788;28;20515;-51
2023/01/19 07:37:48;;;;;;;33.92;24.85;;;;;;;0.14;100.00;100278.22;5087167;28;20039;-49
2023/01/19 07:40:13;;;;;;;30.48;24.33;;;;;;;0.19;100.00;100286.44;5086902;28;20035;-51
2023/01/19 07:42:39;;;;;;;34.72;25.45;;;;;;;0.16;100.00;100286.94;5087142;28;20118;-52
2023/01/19 07:45:04;;;;;;;34.08;25.02;;;;;;;0.19;100.00;100282.91;5086861;28;20032;-49
2023/01/19 07:47:30;;;;;;;34.97;25.42;;;;;;;0.26;100.00;100292.50;5087312;28;20402;-49
2023/01/19 07:49:55;;;;;;;34.97;27.35;;;;;;;0.25;100.00;100298.22;5086863;28;20502;-52
2023/01/19 07:52:21;;;;;;;36.42;27.92;;;;;;;0.31;100.00;100305.38;5087163;28;20381;-47
2023/01/19 07:54:49;;;;;;;34.58;26.33;;;;;;;0.35;100.00;100301.09;5086642;28;20048;-48
2023/01/19 07:57:15;;;;;;;39.08;28.05;;;;;;;0.33;100.00;100313.31;5087753;28;20024;-51
2023/01/19 07:59:40;;;;;;;37.30;28.33;;;;;;;0.30;100.00;100315.44;5087072;28;20356;-49
2023/01/19 08:02:08;;;;;;;42.47;28.67;;;;;;;0.32;100.00;100312.47;5086927;28;20399;-48
2023/01/19 08:04:33;;;;;;;35.00;25.95;;;;;;;0.33;100.00;100325.00;5085866;28;20024;-48
2023/01/19 08:06:58;;;;;;;36.17;27.02;;;;;;;0.30;100.00;100326.31;5086269;28;20035;-50
2023/01/19 08:09:23;;;;;;;37.90;27.80;;;;;;;0.34;100.00;100325.81;5088703;28;20040;-50
2023/01/19 08:11:49;;;;;;;36.78;26.98;;;;;;;0.31;100.00;100335.31;5088968;28;20368;-50
2023/01/19 08:14:14;;;;;;;37.15;28.58;;;;;;;0.22;100.00;100326.75;5089026;28;20097;-47
2023/01/19 08:16:39;;;;;;;32.85;24.70;;;;;;;0.23;100.00;100338.44;5088791;28;20023;-48
2023/01/19 08:19:05;;;;;;;33.08;25.33;;;;;;;0.27;100.00;100345.88;5087937;28;20161;-46
2023/01/19 08:21:32;;;;;;;35.42;25.42;;;;;;;0.29;100.00;100354.59;5089394;28;20107;-48
2023/01/19 08:23:57;;;;;;;34.08;25.92;;;;;;;0.28;100.00;100354.88;5088105;28;20027;-50
2023/01/19 08:26:28;;;;;;;33.13;23.92;;;;;;;0.32;100.00;100364.16;5087226;28;20032;-48
2023/01/19 08:28:55;;;;;;;39.97;25.70;;;;;;;0.31;100.00;100359.78;5086975;28;20450;-51
2023/01/19 08:31:21;;;;;;;34.28;25.02;;;;;;;0.26;100.00;100363.25;5087301;28;20026;-48
2023/01/19 08:33:46;;;;;;;33.60;25.38;;;;;;;0.39;100.00;100380.31;5085553;28;20024;-47
2023/01/19 08:36:11;;;;;;;36.78;26.60;;;;;;;0.42;100.00;100380.63;5087235;28;20332;-49
2023/01/19 08:38:40;;;;;;;35.30;25.25;;;;;;;0.49;100.00;100391.34;5087240;28;20154;-51
2023/01/19 08:41:05;;;;;;;34.92;25.40;;;;;;;0.65;100.00;100406.00;5088833;28;20020;-48
2023/01/19 08:43:31;;;;;;;35.42;25.33;;;;;;;0.74;100.00;100407.22;5088787;28;20034;-48
2023/01/19 08:45:56;;;;;;;32.70;23.42;;;;;;;0.84;100.00;100406.53;5089109;28;20020;-50
2023/01/19 08:48:22;;;;;;;35.22;24.80;;;;;;;0.90;100.00;100427.31;5088965;28;20103;-48
2023/01/19 08:50:48;;;;;;;36.72;25.85;;;;;;;0.92;100.00;100425.16;5088805;28;20600;-48
2023/01/19 08:53:14;;;;;;;32.35;23.88;;;;;;;0.89;100.00;100417.50;5089347;28;20032;-48
2023/01/19 08:55:40;;;;;;;39.35;27.35;;;;;;;0.80;100.00;100420.91;5092243;28;20572;-47
2023/01/19 08:58:07;;;;;;;43.83;30.95;;;;;;;0.76;100.00;100421.41;5092027;28;20056;-47
2023/01/19 09:00:34;;;;;;;35.05;24.67;;;;;;;0.66;100.00;100417.72;5091996;28;20086;-49
2023/01/19 09:03:03;;;;;;;36.63;24.80;;;;;;;0.67;100.00;100422.09;5091891;28;20050;-54
2023/01/19 09:05:36;;;;;;;38.25;26.80;;;;;;;0.60;100.00;100423.09;5091813;28;20036;-51
2023/01/19 09:08:02;;;;;;;37.67;27.03;;;;;;;0.55;100.00;100424.91;5091939;28;20501;-51
2023/01/19 09:10:34;;;;;;;39.70;28.55;;;;;;;0.46;100.00;100428.06;5091961;28;20546;-52
2023/01/19 09:13:03;;;;;;;42.05;27.25;;;;;;;0.50;100.00;100417.50;5092127;28;20092;-50
2023/01/19 09:15:28;;;;;;;40.17;28.90;;;;;;;0.48;100.00;100419.66;5091765;28;20027;-49
2023/01/19 09:17:53;;;;;;;46.63;29.83;;;;;;;0.54;100.00;100423.28;5091683;28;20031;-50
2023/01/19 09:20:19;;;;;;;42.30;28.95;;;;;;;0.66;100.00;100429.44;5091582;28;20042;-49
2023/01/19 09:22:46;;;;;;;44.85;29.83;;;;;;;0.80;100.00;100434.53;5090043;28;20032;-50
2023/01/19 09:25:11;;;;;;;46.22;28.80;;;;;;;0.99;100.00;100444.06;5091797;28;20041;-52
2023/01/19 09:27:37;;;;;;;46.20;29.27;;;;;;;1.12;100.00;100429.22;5091557;28;20028;-49
2023/01/19 09:30:03;;;;;;;44.75;27.35;;;;;;;1.09;100.00;100432.44;5091463;28;20415;-49
2023/01/19 09:32:29;;;;;;;42.88;28.65;;;;;;;0.97;100.00;100423.59;5091370;28;20107;-51
2023/01/19 09:34:55;;;;;;;46.90;28.90;;;;;;;0.88;100.00;100434.09;5090912;28;20304;-49
2023/01/19 09:37:20;;;;;;;42.75;29.02;;;;;;;0.83;100.00;100444.91;5090672;28;20101;-52
2023/01/19 09:39:45;;;;;;;42.10;28.95;;;;;;;0.81;100.00;100445.16;5091183;28;20043;-52
2023/01/19 09:42:36;;;;;;;42.25;29.35;;;;;;;0.80;100.00;100442.69;5090931;28;20497;-51
2023/01/19 09:45:07;;;;;;;43.40;29.00;;;;;;;0.76;100.00;100443.19;5092407;28;20036;-51
2023/01/19 09:47:35;;;;;;;42.85;27.52;;;;;;;0.78;100.00;100446.47;5090496;28;20116;-49
2023/01/19 09:50:09;;;;;;;41.38;26.98;;;;;;;0.83;100.00;100450.38;5090623;28;20031;-50
2023/01/19 09:52:40;;;;;;;43.20;28.67;;;;;;;0.87;100.00;100448.78;5090829;28;20036;-49
2023/01/19 09:55:19;;;;;;;46.95;29.75;;;;;;;0.93;100.00;100453.25;5090297;28;20054;-51
2023/01/19 09:57:44;;;;;;;45.75;30.67;;;;;;;0.93;100.00;100461.41;5090486;28;20028;-48
2023/01/19 10:00:16;;;;;;;48.13;30.15;;;;;;;0.91;100.00;100456.19;5090486;28;20440;-48
2023/01/19 10:02:47;;;;;;;50.63;30.95;;;;;;;0.93;100.00;100459.50;5090670;28;20036;-50
2023/01/19 10:05:27;;;;;;;46.70;28.65;;;;;;;1.01;100.00;100465.56;5090985;28;20043;-51
2023/01/19 10:08:28;;;;;;;49.45;27.88;;;;;;;1.07;100.00;100470.84;5090593;28;20027;-50
2023/01/19 10:10:56;;;;;;;44.63;28.00;;;;;;;1.14;100.00;100467.09;5017802;28;20110;-50
2023/01/19 10:13:45;;;;;;;47.97;28.67;;;;;;;1.21;100.00;100471.31;5090701;28;20069;-51
2023/01/19 10:16:38;;;;;;;42.78;27.00;;;;;;;1.22;100.00;100478.41;5090621;28;20028;-49
2023/01/19 10:19:22;;;;;;;44.55;27.75;;;;;;;1.22;100.00;100466.69;5089723;28;20055;-48
2023/01/19 10:21:50;;;;;;;39.83;25.63;;;;;;;1.17;100.00;100475.63;5089667;28;20474;-50
2023/01/19 10:24:24;;;;;;;40.45;26.15;;;;;;;1.13;100.00;100471.75;5090344;28;20028;-48
2023/01/19 10:26:52;;;;;;;41.30;26.42;;;;;;;1.09;100.00;100482.31;5089048;28;20114;-48
2023/01/19 10:29:27;;;;;;;42.22;27.48;;;;;;;1.12;100.00;100475.53;5089972;28;20028;-49
2023/01/19 10:32:01;;;;;;;35.17;24.20;;;;;;;1.16;100.00;100475.88;5090134;28;20498;-48
2023/01/19 10:34:26;;;;;;;35.90;24.63;;;;;;;1.18;100.00;100479.16;5088687;28;20403;-48
2023/01/19 10:37:01;;;;;;;35.83;24.75;;;;;;;1.16;100.00;100478.59;5090098;28;20032;-52
2023/01/19 10:39:26;;;;;;;35.97;24.63;;;;;;;1.24;100.00;100478.16;5090096;28;20031;-49
2023/01/19 10:41:52;;;;;;;37.47;25.00;;;;;;;1.28;100.00;100482.03;5089959;28;20036;-51
2023/01/19 10:44:26;;;;;;;38.38;25.33;;;;;;;1.35;100.00;100474.47;5088508;28;20070;-50
2023/01/19 10:46:55;;;;;;;39.05;25.60;;;;;;;1.39;100.00;100481.09;5090024;28;20060;-51
2023/01/19 10:49:28;;;;;;;37.72;24.70;;;;;;;1.42;100.00;100476.22;5089885;28;20032;-49
2023/01/19 10:51:57;;;;;;;34.63;24.33;;;;;;;1.38;100.00;100479.44;5089953;28;20032;-49
2023/01/19 10:54:25;;;;;;;35.80;24.40;;;;;;;1.43;100.00;100483.28;5089878;28;20048;-50
2023/01/19 10:56:59;;;;;;;37.10;23.95;;;;;;;1.49;100.00;100485.00;5089790;28;20036;-51
2023/01/19 10:59:45;;;;;;;35.10;23.85;;;;;;;1.50;100.00;100479.28;5088183;28;20490;-49
2023/01/19 11:02:18;;;;;;;33.30;23.55;;;;;;;1.52;100.00;100488.06;5089739;28;20036;-51
2023/01/19 11:04:47;;;;;;;35.92;23.17;;;;;;;1.53;100.00;100477.97;5089315;28;20140;-53
2023/01/19 11:07:21;;;;;;;34.17;22.92;;;;;;;1.54;100.00;100482.34;5089711;28;20042;-51
2023/01/19 11:09:48;;;;;;;32.95;22.35;;;;;;;1.56;100.00;100480.19;5088416;28;20038;-49
2023/01/19 11:12:20;;;;;;;35.42;22.48;;;;;;;1.56;100.00;100472.81;5089718;28;20031;-51
2023/01/19 11:14:47;;;;;;;29.80;20.33;;;;;;;1.65;100.00;100488.75;5080988;28;20091;-50
2023/01/19 11:17:23;;;;;;;35.13;21.58;;;;;;;1.67;100.00;100484.69;5088917;28;20584;-48
2023/01/19 11:19:54;;;;;;;36.95;21.55;;;;;;;1.72;100.00;100481.19;5087338;28;20111;-49
2023/01/19 11:22:25;;;;;;;32.80;22.27;;;;;;;1.82;100.00;100484.03;5089189;28;20125;-50
2023/01/19 11:24:51;;;;;;;32.75;23.30;;;;;;;1.79;100.00;100484.53;5089399;28;20036;-50